Latest Weather Observations for Witchcliffe

IDW60801

Issued at 9:33 am WST Wednesday 27 May 2015 (issued every 30 minutes, with the page automatically refreshed every 10 minutes)

About weather observations | Map of weather stations | Latest weather observations for WA | Other Formats
Station Details ID: 009746 Name: WITCHCLIFFE Lat: -34.03 Lon: 115.10 Height: 80.0 m
Data from the previous 72 hours. | See also: Recent months at Witchcliffe
Date/Time
WST
Temp
°C
App
Temp
°C
Dew
Point
Rel
Hum
%
Delta-T
°C
Wind Press
QNH
hPa
Press
MSL
hPa
Rain
since 9 am
mm
Dir
 
Spd
km/h
Gust
km/h
Spd
kts
Gust
kts
27/09:30am 15.1 13.5 8.8 66 3.2 SW 7 11 4 6 1023.9 1023.8 0.0
27/09:00am 13.1 13.7 11.8 92 0.7 CALM 0 0 0 0 1023.9 1023.8 1.0
27/08:30am 11.8 12.3 11.6 99 0.1 CALM 0 0 0 0 1023.9 1023.8 1.0
27/08:00am 11.0 11.3 10.8 99 0.1 CALM 0 0 0 0 1023.9 1023.8 1.0
27/07:30am 10.8 11.0 10.6 99 0.1 CALM 0 0 0 0 1023.7 1023.6 1.0
27/07:00am 10.8 11.0 10.6 99 0.1 CALM 0 0 0 0 1023.5 1023.4 0.8
27/06:30am 10.7 10.9 10.5 99 0.1 CALM 0 0 0 0 1023.5 1023.4 0.8
27/06:00am 10.7 10.9 10.5 99 0.1 CALM 0 0 0 0 1023.4 1023.3 0.8
27/05:30am 10.7 10.9 10.5 99 0.1 CALM 0 0 0 0 1023.4 1023.3 0.8
27/05:00am 10.7 10.9 10.5 99 0.1 CALM 0 0 0 0 1023.3 1023.2 0.8
27/04:30am 10.5 10.3 10.3 99 0.1 SE 2 9 1 5 1023.3 1023.2 0.8
27/04:00am 10.5 10.6 10.3 99 0.1 CALM 0 0 0 0 1023.2 1023.1 0.8
27/03:30am 10.5 10.6 10.3 99 0.1 CALM 0 0 0 0 1023.4 1023.3 0.8
27/03:00am 10.6 10.8 10.4 99 0.1 CALM 0 0 0 0 1023.4 1023.3 0.8
27/02:30am 10.6 10.8 10.4 99 0.1 CALM 0 0 0 0 1023.5 1023.4 0.8
27/02:00am 10.5 10.6 10.3 99 0.1 CALM 0 0 0 0 1023.6 1023.5 0.8
27/01:30am 10.6 10.8 10.4 99 0.1 CALM 0 0 0 0 1023.5 1023.4 0.8
27/01:00am 10.1 10.1 9.9 99 0.1 CALM 0 0 0 0 1023.7 1023.6 0.8
27/12:30am 10.4 10.5 10.2 99 0.1 CALM 0 0 0 0 1023.9 1023.8 0.8
27/12:00am 10.8 11.0 10.6 99 0.1 CALM 0 0 0 0 1024.1 1024.0 0.8
 
Date/Time
WST
Temp
°C
App
Temp
°C
Dew
Point
Rel
Hum
%
Delta-T
°C
Wind Press
QNH
hPa
Press
MSL
hPa
Rain
since 9 am
mm
Dir
 
Spd
km/h
Gust
km/h
Spd
kts
Gust
kts
26/11:30pm 10.8 11.0 10.6 99 0.1 CALM 0 0 0 0 1024.4 1024.3 0.8
26/11:00pm 11.0 11.2 10.7 98 0.2 CALM 0 0 0 0 1024.6 1024.5 0.8
26/10:30pm 10.8 10.9 10.3 97 0.3 CALM 0 0 0 0 1024.7 1024.6 0.8
26/10:00pm 10.6 10.7 10.0 96 0.3 CALM 0 0 0 0 1024.8 1024.7 0.8
26/09:30pm 11.1 11.2 10.3 95 0.4 CALM 0 0 0 0 1024.9 1024.8 0.8
26/09:00pm 11.2 11.3 10.3 94 0.5 CALM 0 0 0 0 1024.8 1024.7 0.8
26/08:30pm 11.4 11.6 10.5 94 0.5 CALM 0 0 0 0 1024.8 1024.7 0.8
26/08:00pm 11.5 11.6 10.2 92 0.7 CALM 0 0 0 0 1024.7 1024.6 0.8
26/07:30pm 11.6 11.7 10.2 91 0.7 CALM 0 0 0 0 1024.7 1024.6 0.8
26/07:00pm 11.7 11.8 10.3 91 0.7 CALM 0 0 0 0 1024.3 1024.2 0.8
26/06:30pm 11.9 11.7 10.3 90 0.8 E 2 9 1 5 1024.3 1024.2 0.8
26/06:00pm 12.0 12.1 10.1 88 1.0 CALM 0 0 0 0 1024.1 1024.0 0.8
26/05:30pm 12.1 12.1 9.8 86 1.2 CALM 0 0 0 0 1023.9 1023.8 0.8
26/05:00pm 12.5 12.5 9.9 84 1.3 CALM 0 6 0 3 1023.9 1023.8 0.8
26/04:30pm 12.6 10.2 10.0 84 1.3 SSE 13 19 7 10 1023.9 1023.8 0.8
26/04:00pm 13.2 9.8 9.3 77 2.0 S 17 30 9 16 1023.8 1023.7 0.8
26/03:30pm 14.3 11.9 10.1 76 2.2 SSE 13 20 7 11 1023.6 1023.5 0.8
26/03:00pm 14.2 10.7 10.2 77 2.1 SSE 19 28 10 15 1023.6 1023.5 0.8
26/02:30pm 14.2 10.9 11.0 81 1.7 SSE 19 24 10 13 1023.5 1023.4 0.8
26/02:00pm 13.8 11.3 12.2 90 0.9 SSE 17 28 9 15 1023.6 1023.5 0.8
26/01:30pm 13.6 10.9 11.7 88 1.0 S 17 24 9 13 1023.7 1023.6 0.8
26/01:00pm 14.3 11.9 12.7 90 0.9 SSE 17 22 9 12 1023.5 1023.4 0.8
26/12:30pm 14.1 12.2 13.0 93 0.6 S 15 20 8 11 1023.7 1023.6 0.8
26/12:00pm 14.8 11.6 11.4 80 1.8 SSE 19 24 10 13 1023.7 1023.6 0.0
26/11:30am 14.6 12.9 12.6 88 1.1 SSE 13 19 7 10 1023.9 1023.8 0.0
26/11:00am 14.4 12.8 12.8 90 0.9 SSE 13 20 7 11 1023.9 1023.8 0.0
26/10:30am 15.5 12.6 12.3 81 1.8 SSE 19 24 10 13 1023.7 1023.6 0.0
26/10:00am 15.5 13.2 11.7 78 2.1 S 15 22 8 12 1023.6 1023.5 0.0
26/09:30am 16.9 14.2 10.5 66 3.4 WSW 15 35 8 19 1023.2 1023.1 0.0
26/09:00am 16.3 13.5 9.9 66 3.4 SW 15 22 8 12 1023.2 1023.1 10.8
26/08:30am 15.6 13.0 9.5 67 3.2 WSW 13 22 7 12 1023.1 1023.0 10.8
26/08:00am 14.4 12.5 9.2 71 2.7 SW 9 13 5 7 1022.9 1022.8 10.8
26/07:30am 14.2 12.4 9.6 74 2.4 SW 9 15 5 8 1022.6 1022.5 10.8
26/07:00am 14.0 12.1 9.2 73 2.4 SW 9 13 5 7 1022.4 1022.3 10.8
26/06:30am 13.9 12.0 8.9 72 2.5 SW 9 15 5 8 1022.0 1021.9 10.8
26/06:00am 14.4 12.0 8.6 68 2.9 SW 11 20 6 11 1021.7 1021.6 10.8
26/05:30am 15.0 12.3 9.1 68 3.0 SW 13 20 7 11 1021.5 1021.4 10.8
26/05:00am 14.9 12.4 9.7 71 2.7 SW 13 24 7 13 1021.4 1021.3 10.8
26/04:30am 14.6 13.3 11.2 80 1.8 SW 9 13 5 7 1021.3 1021.2 10.8
26/04:00am 14.1 13.2 12.7 91 0.8 SW 9 15 5 8 1021.3 1021.2 10.8
26/03:30am 13.9 14.1 13.1 95 0.4 SW 4 7 2 4 1021.4 1021.3 10.8
26/03:00am 14.0 13.6 13.1 94 0.5 WSW 7 20 4 11 1021.4 1021.3 10.8
26/02:30am 14.1 12.1 11.6 85 1.3 WNW 13 22 7 12 1021.5 1021.4 10.0
26/02:00am 14.9 13.3 12.9 88 1.1 SW 13 19 7 10 1021.4 1021.3 9.0
26/01:30am 15.1 14.5 10.5 74 2.4 W 4 7 2 4 1021.3 1021.2 9.0
26/01:00am 14.9 13.7 10.3 74 2.4 WNW 7 9 4 5 1021.5 1021.4 9.0
26/12:30am 15.5 15.0 10.7 73 2.6 WNW 4 13 2 7 1021.6 1021.5 9.0
26/12:00am 15.3 13.5 9.4 68 3.0 WNW 9 13 5 7 1021.8 1021.7 9.0
 
Date/Time
WST
Temp
°C
App
Temp
°C
Dew
Point
Rel
Hum
%
Delta-T
°C
Wind Press
QNH
hPa
Press
MSL
hPa
Rain
since 9 am
mm
Dir
 
Spd
km/h
Gust
km/h
Spd
kts
Gust
kts
25/11:30pm 15.8 13.7 9.9 68 3.1 WSW 11 17 6 9 1021.9 1021.8 9.0
25/11:00pm 15.6 14.4 10.2 70 2.8 W 7 11 4 6 1021.9 1021.8 9.0
25/10:30pm 15.4 13.7 9.7 69 3.0 W 9 13 5 7 1022.0 1021.9 9.0
25/10:00pm 15.6 13.9 9.7 68 3.1 WNW 9 13 5 7 1022.0 1021.9 9.0
25/09:30pm 15.8 14.4 9.5 66 3.3 W 7 13 4 7 1022.1 1022.0 9.0
25/09:00pm 15.4 14.0 9.7 69 3.0 W 7 11 4 6 1022.0 1021.9 9.0
25/08:30pm 15.7 13.7 10.0 69 3.0 WSW 11 19 6 10 1022.0 1021.9 9.0
25/08:00pm 14.4 13.1 11.2 81 1.7 WNW 9 13 5 7 1021.8 1021.7 9.0
25/07:30pm 13.1 13.9 12.6 97 0.3 CALM 0 7 0 4 1021.7 1021.6 9.0
25/07:00pm 13.1 13.2 12.8 98 0.2 WNW 4 7 2 4 1021.5 1021.4 9.0
25/06:30pm 13.8 14.9 13.6 99 0.1 CALM 0 0 0 0 1021.3 1021.2 9.0
25/06:00pm 14.4 15.7 14.2 99 0.1 CALM 0 0 0 0 1021.2 1021.1 9.0
25/05:30pm 14.9 16.2 14.1 95 0.5 CALM 0 0 0 0 1021.0 1020.9 9.0
25/05:00pm 15.5 15.5 14.2 92 0.7 NNW 7 7 4 4 1020.9 1020.8 9.0
25/04:30pm 16.0 15.7 13.3 84 1.5 NNW 7 9 4 5 1020.8 1020.7 9.0
25/04:00pm 17.0 17.1 13.9 82 1.8 NW 6 11 3 6 1020.7 1020.6 9.0
25/03:30pm 16.1 15.5 13.4 84 1.5 WNW 9 13 5 7 1020.7 1020.6 9.0
25/03:00pm 16.6 16.1 12.6 77 2.2 WNW 7 9 4 5 1020.7 1020.6 9.0
25/02:30pm 17.3 15.9 13.4 78 2.2 NW 13 17 7 9 1020.6 1020.5 9.0
25/02:00pm 17.1 15.8 13.6 80 2.0 NW 13 19 7 10 1020.6 1020.5 9.0
25/01:30pm 16.7 16.7 14.2 85 1.4 WNW 7 15 4 8 1020.7 1020.6 9.0
25/01:00pm 15.3 14.8 15.0 98 0.2 W 11 15 6 8 1021.0 1020.9 9.0
25/12:30pm 15.1 14.4 14.3 95 0.5 WSW 11 17 6 9 1021.1 1021.0 8.8
25/12:00pm 16.2 14.8 13.5 84 1.5 WNW 13 24 7 13 1021.4 1021.3 5.4
25/11:30am 16.6 16.5 13.3 81 1.9 NNW 6 15 3 8 1021.7 1021.6 1.0
25/11:00am 17.6 17.1 13.9 79 2.1 N 9 13 5 7 1021.9 1021.8 0.0
25/10:30am 15.6 14.8 14.1 91 0.9 N 11 13 6 7 1022.2 1022.1 0.0
25/10:00am 15.3 13.0 13.0 86 1.3 NNW 17 22 9 12 1022.4 1022.3 0.0
25/09:30am 14.5 13.3 14.0 97 0.3 NNW 13 17 7 9 1022.4 1022.3 0.0
25/09:00am 14.5 15.9 14.5 100 0.0 CALM 0 0 0 0 1022.3 1022.2 0.4
25/08:30am 12.4 13.2 12.4 100 0.0 CALM 0 2 0 1 1022.2 1022.1 0.4
25/08:00am 11.3 10.9 11.1 99 0.1 SSW 4 9 2 5 1022.3 1022.2 0.4
25/07:30am 11.4 11.8 11.2 99 0.1 CALM 0 0 0 0 1022.0 1021.9 0.4
25/07:00am 11.8 11.2 11.6 99 0.1 NE 6 7 3 4 1021.8 1021.7 0.4
25/06:30am 11.6 12.0 11.4 99 0.1 CALM 0 0 0 0 1021.6 1021.5 0.4
25/06:00am 11.8 11.9 11.6 99 0.1 N 2 6 1 3 1021.4 1021.3 0.4
25/05:30am 11.5 10.8 11.3 99 0.1 N 6 7 3 4 1021.3 1021.2 0.4
25/05:00am 11.6 12.0 11.4 99 0.1 CALM 0 0 0 0 1021.5 1021.4 0.4
25/04:30am 12.2 12.4 12.0 99 0.1 NNE 2 7 1 4 1021.6 1021.5 0.4
25/04:00am 12.4 12.7 12.2 99 0.1 W 2 11 1 6 1021.8 1021.7 0.2
25/03:30am 12.0 11.4 11.8 99 0.1 N 6 7 3 4 1021.7 1021.6 0.2
25/03:00am 12.0 11.2 11.8 99 0.1 N 7 9 4 5 1021.7 1021.6 0.2
25/02:30am 12.3 11.8 12.1 99 0.1 NNW 6 7 3 4 1022.0 1021.9 0.2
25/02:00am 12.0 11.2 11.8 99 0.1 N 7 9 4 5 1021.9 1021.8 0.2
25/01:30am 12.4 13.1 12.2 99 0.1 CALM 0 0 0 0 1021.9 1021.8 0.2
25/01:00am 12.8 13.6 12.6 99 0.1 CALM 0 0 0 0 1022.1 1022.0 0.2
25/12:30am 12.8 13.2 12.5 98 0.2 WSW 2 13 1 7 1022.1 1022.0 0.2
25/12:00am 13.0 13.0 12.4 96 0.3 N 4 9 2 5 1022.0 1021.9 0.2
 
Date/Time
WST
Temp
°C
App
Temp
°C
Dew
Point
Rel
Hum
%
Delta-T
°C
Wind Press
QNH
hPa
Press
MSL
hPa
Rain
since 9 am
mm
Dir
 
Spd
km/h
Gust
km/h
Spd
kts
Gust
kts
24/11:30pm 13.1 13.8 12.3 95 0.4 CALM 0 0 0 0 1022.3 1022.2 0.0
24/11:00pm 13.1 13.3 12.0 93 0.6 NW 2 7 1 4 1022.3 1022.2 0.0
24/10:30pm 13.1 13.7 11.8 92 0.7 CALM 0 0 0 0 1022.2 1022.1 0.0
24/10:00pm 13.4 13.6 12.0 91 0.8 N 2 7 1 4 1022.5 1022.4 0.0
24/09:30pm 13.6 12.6 12.2 91 0.8 N 9 11 5 6 1022.4 1022.3 0.0
24/09:00pm 13.4 14.0 12.0 91 0.8 CALM 0 0 0 0 1022.3 1022.2 0.0
24/08:30pm 13.8 14.4 11.8 88 1.1 CALM 0 0 0 0 1022.3 1022.2 0.0
24/08:00pm 14.0 13.4 11.7 86 1.2 N 6 11 3 6 1022.3 1022.2 0.0
24/07:30pm 14.5 13.3 11.6 83 1.6 WSW 9 15 5 8 1022.3 1022.2 0.0
24/07:00pm 14.3 13.5 11.8 85 1.3 N 7 11 4 6 1022.0 1021.9 0.0
24/06:30pm 14.4 13.3 11.9 85 1.4 N 9 13 5 7 1021.9 1021.8 0.0
24/06:00pm 14.7 13.6 12.0 84 1.5 N 9 11 5 6 1021.6 1021.5 0.0
24/05:30pm 15.0 14.3 12.1 83 1.6 N 7 9 4 5 1021.4 1021.3 0.0
24/05:00pm 15.5 15.0 11.9 79 2.0 N 6 9 3 5 1021.3 1021.2 0.0
24/04:30pm 15.9 15.3 12.3 79 2.0 N 7 9 4 5 1021.2 1021.1 0.0
24/04:00pm 16.2 15.7 12.6 79 2.0 N 7 9 4 5 1021.2 1021.1 0.0
24/03:30pm 16.3 14.6 12.3 77 2.2 N 13 17 7 9 1021.1 1021.0 0.0
24/03:00pm 16.7 15.5 11.6 72 2.8 N 9 13 5 7 1021.0 1020.9 0.0
24/02:30pm 16.9 16.0 11.4 70 3.0 N 7 13 4 7 1021.0 1020.9 0.0
24/02:00pm 17.3 16.1 11.6 69 3.1 NNW 9 15 5 8 1021.1 1021.0 0.0
24/01:30pm 17.4 16.5 10.5 64 3.7 N 6 9 3 5 1021.1 1021.0 0.0
24/01:00pm 16.9 15.6 11.4 70 3.0 N 9 13 5 7 1021.4 1021.3 0.0
24/12:30pm 16.2 14.3 11.8 75 2.4 NNW 13 17 7 9 1021.8 1021.7 0.0
24/12:00pm 16.6 15.9 11.3 71 2.9 N 6 11 3 6 1022.0 1021.9 0.0
24/11:30am 16.2 15.0 11.6 74 2.5 NNE 9 13 5 7 1022.4 1022.3 0.0
24/11:00am 15.4 14.8 12.2 81 1.7 NNE 7 11 4 6 1022.8 1022.7 0.0
24/10:30am 15.0 14.1 11.4 79 1.9 N 7 9 4 5 1023.0 1022.9 0.0
24/10:00am 15.0 14.4 11.6 80 1.8 NNE 6 11 3 6 1023.0 1022.9 0.0

Other Formats:

Comma delimited format used in spreadsheet applications
http://www.bom.gov.au/fwo/IDW60801/IDW60801.95641.axf

JavaScript Object Notation format (JSON) in row-major order
http://www.bom.gov.au/fwo/IDW60801/IDW60801.95641.json